sensor_id;sensor_type;location;lat;lon;timestamp;temperature;humidity
6270;DHT22;3168;51.684;6.954;2023-12-22T00:01:26;5.60;99.90
6270;DHT22;3168;51.684;6.954;2023-12-22T00:03:52;5.60;99.90
6270;DHT22;3168;51.684;6.954;2023-12-22T00:06:17;5.60;99.90
6270;DHT22;3168;51.684;6.954;2023-12-22T00:08:43;5.50;99.90
6270;DHT22;3168;51.684;6.954;2023-12-22T00:11:09;5.50;99.90
6270;DHT22;3168;51.684;6.954;2023-12-22T00:13:35;5.40;99.90
6270;DHT22;3168;51.684;6.954;2023-12-22T00:16:01;5.40;99.90
6270;DHT22;3168;51.684;6.954;2023-12-22T00:18:27;5.40;99.90
6270;DHT22;3168;51.684;6.954;2023-12-22T00:20:53;5.40;99.90
6270;DHT22;3168;51.684;6.954;2023-12-22T00:23:18;5.40;99.90
6270;DHT22;3168;51.684;6.954;2023-12-22T00:25:44;5.30;99.90
6270;DHT22;3168;51.684;6.954;2023-12-22T00:28:10;5.30;99.90
6270;DHT22;3168;51.684;6.954;2023-12-22T00:30:36;5.30;99.90
6270;DHT22;3168;51.684;6.954;2023-12-22T00:33:02;5.30;99.90
6270;DHT22;3168;51.684;6.954;2023-12-22T00:35:28;5.40;99.90
6270;DHT22;3168;51.684;6.954;2023-12-22T00:37:54;5.40;99.90
6270;DHT22;3168;51.684;6.954;2023-12-22T00:40:20;5.40;99.90
6270;DHT22;3168;51.684;6.954;2023-12-22T00:42:46;5.40;99.90
6270;DHT22;3168;51.684;6.954;2023-12-22T00:45:11;5.40;99.90
6270;DHT22;3168;51.684;6.954;2023-12-22T00:47:37;5.40;99.90
6270;DHT22;3168;51.684;6.954;2023-12-22T00:50:04;5.40;99.90
6270;DHT22;3168;51.684;6.954;2023-12-22T00:52:30;5.50;99.90
6270;DHT22;3168;51.684;6.954;2023-12-22T00:54:56;5.50;99.90
6270;DHT22;3168;51.684;6.954;2023-12-22T00:57:22;5.50;99.90
6270;DHT22;3168;51.684;6.954;2023-12-22T00:59:48;5.50;99.90
6270;DHT22;3168;51.684;6.954;2023-12-22T01:02:15;5.50;99.90
6270;DHT22;3168;51.684;6.954;2023-12-22T01:04:40;5.50;99.90
6270;DHT22;3168;51.684;6.954;2023-12-22T01:07:08;5.50;99.90
6270;DHT22;3168;51.684;6.954;2023-12-22T01:09:34;5.50;99.90
6270;DHT22;3168;51.684;6.954;2023-12-22T01:11:59;5.60;99.90
6270;DHT22;3168;51.684;6.954;2023-12-22T01:14:25;5.60;99.90
6270;DHT22;3168;51.684;6.954;2023-12-22T01:16:51;5.60;99.90
6270;DHT22;3168;51.684;6.954;2023-12-22T01:19:17;5.70;99.90
6270;DHT22;3168;51.684;6.954;2023-12-22T01:21:43;5.70;99.90
6270;DHT22;3168;51.684;6.954;2023-12-22T01:24:08;5.70;99.90
6270;DHT22;3168;51.684;6.954;2023-12-22T01:26:34;5.80;99.90
6270;DHT22;3168;51.684;6.954;2023-12-22T01:29:00;5.80;99.90
6270;DHT22;3168;51.684;6.954;2023-12-22T01:31:26;5.80;99.90
6270;DHT22;3168;51.684;6.954;2023-12-22T01:33:52;5.90;99.90
6270;DHT22;3168;51.684;6.954;2023-12-22T01:36:18;5.90;99.90
6270;DHT22;3168;51.684;6.954;2023-12-22T01:38:43;6.00;99.90
6270;DHT22;3168;51.684;6.954;2023-12-22T01:41:09;6.10;99.90
6270;DHT22;3168;51.684;6.954;2023-12-22T01:43:35;6.10;99.90
6270;DHT22;3168;51.684;6.954;2023-12-22T01:46:01;6.10;99.90
6270;DHT22;3168;51.684;6.954;2023-12-22T01:48:27;6.00;99.90
6270;DHT22;3168;51.684;6.954;2023-12-22T01:50:53;6.00;99.90
6270;DHT22;3168;51.684;6.954;2023-12-22T01:53:19;5.80;99.90
6270;DHT22;3168;51.684;6.954;2023-12-22T01:55:45;5.90;99.90
6270;DHT22;3168;51.684;6.954;2023-12-22T01:58:11;5.80;99.90
6270;DHT22;3168;51.684;6.954;2023-12-22T02:00:37;5.80;99.90
6270;DHT22;3168;51.684;6.954;2023-12-22T02:03:04;5.70;99.90
6270;DHT22;3168;51.684;6.954;2023-12-22T02:05:30;5.70;99.90
6270;DHT22;3168;51.684;6.954;2023-12-22T02:07:56;5.60;99.90
6270;DHT22;3168;51.684;6.954;2023-12-22T02:10:22;5.70;99.90
6270;DHT22;3168;51.684;6.954;2023-12-22T02:12:48;5.70;99.90
6270;DHT22;3168;51.684;6.954;2023-12-22T02:15:13;5.70;99.90
6270;DHT22;3168;51.684;6.954;2023-12-22T02:17:59;5.70;99.90
6270;DHT22;3168;51.684;6.954;2023-12-22T02:20:24;5.80;99.90
6270;DHT22;3168;51.684;6.954;2023-12-22T02:22:52;5.80;99.90
6270;DHT22;3168;51.684;6.954;2023-12-22T02:25:18;5.80;99.90
6270;DHT22;3168;51.684;6.954;2023-12-22T02:27:46;5.80;99.90
6270;DHT22;3168;51.684;6.954;2023-12-22T02:30:14;5.80;99.90
6270;DHT22;3168;51.684;6.954;2023-12-22T02:32:40;5.70;99.90
6270;DHT22;3168;51.684;6.954;2023-12-22T02:35:08;5.80;99.90
6270;DHT22;3168;51.684;6.954;2023-12-22T02:37:33;5.80;99.90
6270;DHT22;3168;51.684;6.954;2023-12-22T02:39:59;5.70;99.90
6270;DHT22;3168;51.684;6.954;2023-12-22T02:42:24;5.70;99.90
6270;DHT22;3168;51.684;6.954;2023-12-22T02:44:50;5.60;99.90
6270;DHT22;3168;51.684;6.954;2023-12-22T02:47:16;5.60;99.90
6270;DHT22;3168;51.684;6.954;2023-12-22T02:49:42;5.60;99.90
6270;DHT22;3168;51.684;6.954;2023-12-22T02:52:08;5.60;99.90
6270;DHT22;3168;51.684;6.954;2023-12-22T02:54:34;5.50;99.90
6270;DHT22;3168;51.684;6.954;2023-12-22T02:57:00;5.50;99.90
6270;DHT22;3168;51.684;6.954;2023-12-22T02:59:25;5.50;99.90
6270;DHT22;3168;51.684;6.954;2023-12-22T03:01:51;5.50;99.90
6270;DHT22;3168;51.684;6.954;2023-12-22T03:04:17;5.60;99.90
6270;DHT22;3168;51.684;6.954;2023-12-22T03:06:43;5.60;99.90
6270;DHT22;3168;51.684;6.954;2023-12-22T03:09:09;5.60;99.90
6270;DHT22;3168;51.684;6.954;2023-12-22T03:11:35;5.60;99.90
6270;DHT22;3168;51.684;6.954;2023-12-22T03:14:00;5.70;99.90
6270;DHT22;3168;51.684;6.954;2023-12-22T03:16:26;5.70;99.90
6270;DHT22;3168;51.684;6.954;2023-12-22T03:18:52;5.60;99.90
6270;DHT22;3168;51.684;6.954;2023-12-22T03:21:18;5.60;99.90
6270;DHT22;3168;51.684;6.954;2023-12-22T03:23:45;5.50;99.90
6270;DHT22;3168;51.684;6.954;2023-12-22T03:26:11;5.40;99.90
6270;DHT22;3168;51.684;6.954;2023-12-22T03:28:37;5.20;99.90
6270;DHT22;3168;51.684;6.954;2023-12-22T03:31:03;5.20;99.90
6270;DHT22;3168;51.684;6.954;2023-12-22T03:33:28;5.20;99.90
6270;DHT22;3168;51.684;6.954;2023-12-22T03:35:54;5.10;99.90
6270;DHT22;3168;51.684;6.954;2023-12-22T03:38:20;5.10;99.90
6270;DHT22;3168;51.684;6.954;2023-12-22T03:40:47;5.10;99.90
6270;DHT22;3168;51.684;6.954;2023-12-22T03:43:13;5.00;99.90
6270;DHT22;3168;51.684;6.954;2023-12-22T03:45:39;5.00;99.90
6270;DHT22;3168;51.684;6.954;2023-12-22T03:48:06;5.20;99.90
6270;DHT22;3168;51.684;6.954;2023-12-22T03:50:31;5.40;99.90
6270;DHT22;3168;51.684;6.954;2023-12-22T03:52:57;5.30;99.90
6270;DHT22;3168;51.684;6.954;2023-12-22T03:55:23;5.20;99.90
6270;DHT22;3168;51.684;6.954;2023-12-22T03:57:49;5.00;99.90
6270;DHT22;3168;51.684;6.954;2023-12-22T04:00:15;4.90;99.90
6270;DHT22;3168;51.684;6.954;2023-12-22T04:02:41;4.90;99.90
6270;DHT22;3168;51.684;6.954;2023-12-22T04:05:07;4.90;99.90
6270;DHT22;3168;51.684;6.954;2023-12-22T04:07:33;4.90;99.90
6270;DHT22;3168;51.684;6.954;2023-12-22T04:09:59;5.00;99.90
6270;DHT22;3168;51.684;6.954;2023-12-22T04:12:25;4.90;99.90
6270;DHT22;3168;51.684;6.954;2023-12-22T04:14:51;4.90;99.90
6270;DHT22;3168;51.684;6.954;2023-12-22T04:17:17;4.90;99.90
6270;DHT22;3168;51.684;6.954;2023-12-22T04:19:43;4.90;99.90
6270;DHT22;3168;51.684;6.954;2023-12-22T04:22:09;4.90;99.90
6270;DHT22;3168;51.684;6.954;2023-12-22T04:24:35;5.00;99.90
6270;DHT22;3168;51.684;6.954;2023-12-22T04:27:01;5.00;99.90
6270;DHT22;3168;51.684;6.954;2023-12-22T04:29:27;4.90;99.90
6270;DHT22;3168;51.684;6.954;2023-12-22T04:31:53;4.90;99.90
6270;DHT22;3168;51.684;6.954;2023-12-22T04:34:19;4.90;99.90
6270;DHT22;3168;51.684;6.954;2023-12-22T04:36:45;4.90;99.90
6270;DHT22;3168;51.684;6.954;2023-12-22T04:39:11;5.00;99.90
6270;DHT22;3168;51.684;6.954;2023-12-22T04:41:36;5.00;99.90
6270;DHT22;3168;51.684;6.954;2023-12-22T04:44:03;4.90;99.90
6270;DHT22;3168;51.684;6.954;2023-12-22T04:46:29;4.90;99.90
6270;DHT22;3168;51.684;6.954;2023-12-22T04:48:55;4.90;99.90
6270;DHT22;3168;51.684;6.954;2023-12-22T04:51:21;4.90;99.90
6270;DHT22;3168;51.684;6.954;2023-12-22T04:53:47;4.90;99.90
6270;DHT22;3168;51.684;6.954;2023-12-22T04:56:13;4.90;99.90
6270;DHT22;3168;51.684;6.954;2023-12-22T04:58:39;4.90;99.90
6270;DHT22;3168;51.684;6.954;2023-12-22T05:01:05;4.90;99.90
6270;DHT22;3168;51.684;6.954;2023-12-22T05:03:31;5.00;99.90
6270;DHT22;3168;51.684;6.954;2023-12-22T05:05:57;5.00;99.90
6270;DHT22;3168;51.684;6.954;2023-12-22T05:08:22;5.00;99.90
6270;DHT22;3168;51.684;6.954;2023-12-22T05:10:48;5.00;99.90
6270;DHT22;3168;51.684;6.954;2023-12-22T05:13:14;5.00;99.90
6270;DHT22;3168;51.684;6.954;2023-12-22T05:15:40;5.00;99.90
6270;DHT22;3168;51.684;6.954;2023-12-22T05:18:06;5.00;99.90
6270;DHT22;3168;51.684;6.954;2023-12-22T05:20:32;5.00;99.90
6270;DHT22;3168;51.684;6.954;2023-12-22T05:22:57;5.00;99.90
6270;DHT22;3168;51.684;6.954;2023-12-22T05:25:23;5.00;99.90
6270;DHT22;3168;51.684;6.954;2023-12-22T05:27:49;5.10;99.90
6270;DHT22;3168;51.684;6.954;2023-12-22T05:30:15;5.20;99.90
6270;DHT22;3168;51.684;6.954;2023-12-22T05:32:41;5.20;99.90
6270;DHT22;3168;51.684;6.954;2023-12-22T05:35:08;5.20;99.90
6270;DHT22;3168;51.684;6.954;2023-12-22T05:37:33;5.20;99.90
6270;DHT22;3168;51.684;6.954;2023-12-22T05:39:59;5.20;99.90
6270;DHT22;3168;51.684;6.954;2023-12-22T05:42:25;5.20;99.90
6270;DHT22;3168;51.684;6.954;2023-12-22T05:44:51;5.30;99.90
6270;DHT22;3168;51.684;6.954;2023-12-22T05:47:17;5.30;99.90
6270;DHT22;3168;51.684;6.954;2023-12-22T05:49:43;5.30;99.90
6270;DHT22;3168;51.684;6.954;2023-12-22T05:52:09;5.40;99.90
6270;DHT22;3168;51.684;6.954;2023-12-22T05:54:37;5.40;99.90
6270;DHT22;3168;51.684;6.954;2023-12-22T05:57:02;5.40;99.90
6270;DHT22;3168;51.684;6.954;2023-12-22T05:59:28;5.40;99.90
6270;DHT22;3168;51.684;6.954;2023-12-22T06:01:54;5.50;99.90
6270;DHT22;3168;51.684;6.954;2023-12-22T06:04:19;5.50;99.90
6270;DHT22;3168;51.684;6.954;2023-12-22T06:06:45;5.60;99.90
6270;DHT22;3168;51.684;6.954;2023-12-22T06:09:11;5.50;99.90
6270;DHT22;3168;51.684;6.954;2023-12-22T06:11:37;5.50;99.90
6270;DHT22;3168;51.684;6.954;2023-12-22T06:14:03;5.50;99.90
6270;DHT22;3168;51.684;6.954;2023-12-22T06:16:29;5.50;99.90
6270;DHT22;3168;51.684;6.954;2023-12-22T06:18:54;5.40;99.90
6270;DHT22;3168;51.684;6.954;2023-12-22T06:21:20;5.40;99.90
6270;DHT22;3168;51.684;6.954;2023-12-22T06:23:46;5.40;99.90
6270;DHT22;3168;51.684;6.954;2023-12-22T06:26:12;5.40;99.90
6270;DHT22;3168;51.684;6.954;2023-12-22T06:28:38;5.40;99.90
6270;DHT22;3168;51.684;6.954;2023-12-22T06:31:04;5.40;99.90
6270;DHT22;3168;51.684;6.954;2023-12-22T06:33:30;5.40;99.90
6270;DHT22;3168;51.684;6.954;2023-12-22T06:35:56;5.40;99.90
6270;DHT22;3168;51.684;6.954;2023-12-22T06:38:22;5.40;99.90
6270;DHT22;3168;51.684;6.954;2023-12-22T06:40:48;5.40;99.90
6270;DHT22;3168;51.684;6.954;2023-12-22T06:43:14;5.40;99.90
6270;DHT22;3168;51.684;6.954;2023-12-22T06:45:40;5.40;99.90
6270;DHT22;3168;51.684;6.954;2023-12-22T06:48:06;5.40;99.90
6270;DHT22;3168;51.684;6.954;2023-12-22T06:50:32;5.50;99.90
6270;DHT22;3168;51.684;6.954;2023-12-22T06:52:58;5.50;99.90
6270;DHT22;3168;51.684;6.954;2023-12-22T06:55:24;5.50;99.90
6270;DHT22;3168;51.684;6.954;2023-12-22T06:57:51;5.40;99.90
6270;DHT22;3168;51.684;6.954;2023-12-22T07:00:17;5.40;1.00
6270;DHT22;3168;51.684;6.954;2023-12-22T07:02:44;5.40;99.90
6270;DHT22;3168;51.684;6.954;2023-12-22T07:08:00;5.40;99.90
6270;DHT22;3168;51.684;6.954;2023-12-22T07:10:26;5.50;1.00
6270;DHT22;3168;51.684;6.954;2023-12-22T07:12:52;5.40;1.00
6270;DHT22;3168;51.684;6.954;2023-12-22T07:15:18;5.40;1.00
6270;DHT22;3168;51.684;6.954;2023-12-22T07:17:44;5.40;1.00
6270;DHT22;3168;51.684;6.954;2023-12-22T07:20:10;5.40;1.00
6270;DHT22;3168;51.684;6.954;2023-12-22T07:22:36;5.40;1.00
6270;DHT22;3168;51.684;6.954;2023-12-22T07:25:03;5.40;1.00
6270;DHT22;3168;51.684;6.954;2023-12-22T07:27:29;5.40;1.00
6270;DHT22;3168;51.684;6.954;2023-12-22T07:29:55;5.30;1.00
6270;DHT22;3168;51.684;6.954;2023-12-22T07:32:21;5.30;1.00
6270;DHT22;3168;51.684;6.954;2023-12-22T07:34:49;5.40;1.00
6270;DHT22;3168;51.684;6.954;2023-12-22T07:37:15;5.40;1.00
6270;DHT22;3168;51.684;6.954;2023-12-22T07:39:41;5.40;1.00
6270;DHT22;3168;51.684;6.954;2023-12-22T07:42:07;5.50;1.00
6270;DHT22;3168;51.684;6.954;2023-12-22T07:44:33;5.40;1.00
6270;DHT22;3168;51.684;6.954;2023-12-22T07:46:59;5.50;1.00
6270;DHT22;3168;51.684;6.954;2023-12-22T07:49:24;5.60;1.00
6270;DHT22;3168;51.684;6.954;2023-12-22T07:51:51;5.60;1.00
6270;DHT22;3168;51.684;6.954;2023-12-22T07:54:16;5.70;1.00
6270;DHT22;3168;51.684;6.954;2023-12-22T07:56:42;5.70;1.00
6270;DHT22;3168;51.684;6.954;2023-12-22T07:59:08;5.90;1.00
6270;DHT22;3168;51.684;6.954;2023-12-22T08:01:34;5.90;1.00
6270;DHT22;3168;51.684;6.954;2023-12-22T08:04:00;6.00;99.90
6270;DHT22;3168;51.684;6.954;2023-12-22T08:06:26;6.10;99.90
6270;DHT22;3168;51.684;6.954;2023-12-22T08:08:52;6.30;99.90
6270;DHT22;3168;51.684;6.954;2023-12-22T08:11:18;6.40;99.90
6270;DHT22;3168;51.684;6.954;2023-12-22T08:13:44;6.60;99.90
6270;DHT22;3168;51.684;6.954;2023-12-22T08:16:10;6.60;99.90
6270;DHT22;3168;51.684;6.954;2023-12-22T08:18:36;6.70;99.90
6270;DHT22;3168;51.684;6.954;2023-12-22T08:21:02;6.80;99.90
6270;DHT22;3168;51.684;6.954;2023-12-22T08:23:28;6.80;99.90
6270;DHT22;3168;51.684;6.954;2023-12-22T08:25:54;6.90;99.90
6270;DHT22;3168;51.684;6.954;2023-12-22T08:28:21;6.90;99.90
6270;DHT22;3168;51.684;6.954;2023-12-22T08:30:46;7.00;99.90
6270;DHT22;3168;51.684;6.954;2023-12-22T08:33:12;7.00;99.90
6270;DHT22;3168;51.684;6.954;2023-12-22T08:35:38;7.00;99.90
6270;DHT22;3168;51.684;6.954;2023-12-22T08:38:04;7.00;99.90
6270;DHT22;3168;51.684;6.954;2023-12-22T08:40:30;7.00;99.90
6270;DHT22;3168;51.684;6.954;2023-12-22T08:42:56;7.00;99.90
6270;DHT22;3168;51.684;6.954;2023-12-22T08:45:22;7.10;99.90
6270;DHT22;3168;51.684;6.954;2023-12-22T08:47:48;7.10;99.90
6270;DHT22;3168;51.684;6.954;2023-12-22T08:50:15;7.10;99.90
6270;DHT22;3168;51.684;6.954;2023-12-22T08:52:40;7.10;99.90
6270;DHT22;3168;51.684;6.954;2023-12-22T08:55:06;7.20;99.90
6270;DHT22;3168;51.684;6.954;2023-12-22T08:57:32;7.20;99.90
6270;DHT22;3168;51.684;6.954;2023-12-22T08:59:58;7.30;99.90
6270;DHT22;3168;51.684;6.954;2023-12-22T09:02:25;7.40;99.90
6270;DHT22;3168;51.684;6.954;2023-12-22T09:04:51;7.40;99.90
6270;DHT22;3168;51.684;6.954;2023-12-22T09:07:16;7.40;99.90
6270;DHT22;3168;51.684;6.954;2023-12-22T09:09:42;7.40;99.90
6270;DHT22;3168;51.684;6.954;2023-12-22T09:12:08;7.40;99.90
6270;DHT22;3168;51.684;6.954;2023-12-22T09:14:34;7.40;99.90
6270;DHT22;3168;51.684;6.954;2023-12-22T09:17:00;7.40;99.90
6270;DHT22;3168;51.684;6.954;2023-12-22T09:19:27;7.30;99.90
6270;DHT22;3168;51.684;6.954;2023-12-22T09:21:52;7.30;99.90
6270;DHT22;3168;51.684;6.954;2023-12-22T09:24:19;7.20;99.90
6270;DHT22;3168;51.684;6.954;2023-12-22T09:26:45;7.10;99.90
6270;DHT22;3168;51.684;6.954;2023-12-22T09:29:11;7.10;99.90
6270;DHT22;3168;51.684;6.954;2023-12-22T09:31:37;7.10;99.90
6270;DHT22;3168;51.684;6.954;2023-12-22T09:34:03;7.00;99.90
6270;DHT22;3168;51.684;6.954;2023-12-22T09:36:30;6.90;99.90
6270;DHT22;3168;51.684;6.954;2023-12-22T09:38:56;6.90;99.90
6270;DHT22;3168;51.684;6.954;2023-12-22T09:41:22;6.90;99.90
6270;DHT22;3168;51.684;6.954;2023-12-22T09:43:48;6.80;99.90
6270;DHT22;3168;51.684;6.954;2023-12-22T09:46:13;6.80;99.90
6270;DHT22;3168;51.684;6.954;2023-12-22T09:48:39;6.70;1.00
6270;DHT22;3168;51.684;6.954;2023-12-22T09:51:05;6.60;1.00
6270;DHT22;3168;51.684;6.954;2023-12-22T09:53:31;6.60;1.00
6270;DHT22;3168;51.684;6.954;2023-12-22T09:55:57;6.60;1.00
6270;DHT22;3168;51.684;6.954;2023-12-22T09:58:23;6.60;1.00
6270;DHT22;3168;51.684;6.954;2023-12-22T10:00:49;6.60;1.00
6270;DHT22;3168;51.684;6.954;2023-12-22T10:03:15;6.60;1.00
6270;DHT22;3168;51.684;6.954;2023-12-22T10:05:41;6.60;1.00
6270;DHT22;3168;51.684;6.954;2023-12-22T10:08:08;6.60;1.00
6270;DHT22;3168;51.684;6.954;2023-12-22T10:10:33;6.60;1.00
6270;DHT22;3168;51.684;6.954;2023-12-22T10:12:59;6.70;1.00
6270;DHT22;3168;51.684;6.954;2023-12-22T10:15:25;6.70;1.00
6270;DHT22;3168;51.684;6.954;2023-12-22T10:17:52;6.70;1.00
6270;DHT22;3168;51.684;6.954;2023-12-22T10:20:18;6.70;1.00
6270;DHT22;3168;51.684;6.954;2023-12-22T10:22:44;6.80;1.00
6270;DHT22;3168;51.684;6.954;2023-12-22T10:25:09;6.80;1.00
6270;DHT22;3168;51.684;6.954;2023-12-22T10:27:36;6.80;1.00
6270;DHT22;3168;51.684;6.954;2023-12-22T10:30:02;6.80;1.00
6270;DHT22;3168;51.684;6.954;2023-12-22T10:32:27;6.80;1.00
6270;DHT22;3168;51.684;6.954;2023-12-22T10:34:53;6.90;1.00
6270;DHT22;3168;51.684;6.954;2023-12-22T10:37:19;6.90;1.00
6270;DHT22;3168;51.684;6.954;2023-12-22T10:39:45;6.90;1.00
6270;DHT22;3168;51.684;6.954;2023-12-22T10:42:11;6.90;1.00
6270;DHT22;3168;51.684;6.954;2023-12-22T10:44:37;7.00;1.00
6270;DHT22;3168;51.684;6.954;2023-12-22T10:47:03;7.00;1.00
6270;DHT22;3168;51.684;6.954;2023-12-22T10:49:29;7.10;1.00
6270;DHT22;3168;51.684;6.954;2023-12-22T10:51:55;7.10;1.00
6270;DHT22;3168;51.684;6.954;2023-12-22T10:54:20;7.20;1.00
6270;DHT22;3168;51.684;6.954;2023-12-22T10:56:47;7.30;1.00
6270;DHT22;3168;51.684;6.954;2023-12-22T10:59:15;7.30;1.00
6270;DHT22;3168;51.684;6.954;2023-12-22T11:01:39;7.30;1.00
6270;DHT22;3168;51.684;6.954;2023-12-22T11:04:06;7.30;1.00
6270;DHT22;3168;51.684;6.954;2023-12-22T11:06:35;7.30;1.00
6270;DHT22;3168;51.684;6.954;2023-12-22T11:09:00;7.40;1.00
6270;DHT22;3168;51.684;6.954;2023-12-22T11:11:27;7.40;1.00
6270;DHT22;3168;51.684;6.954;2023-12-22T11:13:53;7.30;1.00
6270;DHT22;3168;51.684;6.954;2023-12-22T11:16:20;7.30;1.00
6270;DHT22;3168;51.684;6.954;2023-12-22T11:18:45;7.20;1.00
6270;DHT22;3168;51.684;6.954;2023-12-22T11:21:12;7.30;1.00
6270;DHT22;3168;51.684;6.954;2023-12-22T11:23:37;7.30;1.00
6270;DHT22;3168;51.684;6.954;2023-12-22T11:26:04;7.20;1.00
6270;DHT22;3168;51.684;6.954;2023-12-22T11:28:31;7.20;1.00
6270;DHT22;3168;51.684;6.954;2023-12-22T11:30:56;7.20;1.00
6270;DHT22;3168;51.684;6.954;2023-12-22T11:33:22;7.20;1.00
6270;DHT22;3168;51.684;6.954;2023-12-22T11:35:48;7.20;1.00
6270;DHT22;3168;51.684;6.954;2023-12-22T11:38:14;7.20;1.00
6270;DHT22;3168;51.684;6.954;2023-12-22T11:40:39;7.20;1.00
6270;DHT22;3168;51.684;6.954;2023-12-22T11:43:06;7.20;1.00
6270;DHT22;3168;51.684;6.954;2023-12-22T11:45:32;7.20;1.00
6270;DHT22;3168;51.684;6.954;2023-12-22T11:48:04;7.30;1.00
6270;DHT22;3168;51.684;6.954;2023-12-22T11:50:28;7.30;1.00
6270;DHT22;3168;51.684;6.954;2023-12-22T11:52:53;7.30;1.00
6270;DHT22;3168;51.684;6.954;2023-12-22T11:55:52;7.40;1.00
6270;DHT22;3168;51.684;6.954;2023-12-22T11:57:46;7.40;1.00
6270;DHT22;3168;51.684;6.954;2023-12-22T12:03:05;7.40;1.00
6270;DHT22;3168;51.684;6.954;2023-12-22T12:05:28;7.40;1.00
6270;DHT22;3168;51.684;6.954;2023-12-22T12:07:54;7.50;1.00
6270;DHT22;3168;51.684;6.954;2023-12-22T12:13:14;7.60;1.00
6270;DHT22;3168;51.684;6.954;2023-12-22T12:15:39;7.80;1.00
6270;DHT22;3168;51.684;6.954;2023-12-22T12:18:05;7.70;1.00
6270;DHT22;3168;51.684;6.954;2023-12-22T12:20:31;7.80;1.00
6270;DHT22;3168;51.684;6.954;2023-12-22T12:22:57;7.80;1.00
6270;DHT22;3168;51.684;6.954;2023-12-22T12:25:23;7.90;1.00
6270;DHT22;3168;51.684;6.954;2023-12-22T12:28:00;7.90;1.00
6270;DHT22;3168;51.684;6.954;2023-12-22T12:30:17;7.90;1.00
6270;DHT22;3168;51.684;6.954;2023-12-22T12:32:43;7.90;1.00
6270;DHT22;3168;51.684;6.954;2023-12-22T12:35:10;8.00;1.00
6270;DHT22;3168;51.684;6.954;2023-12-22T12:37:36;8.10;1.00
6270;DHT22;3168;51.684;6.954;2023-12-22T12:40:03;8.10;1.00
6270;DHT22;3168;51.684;6.954;2023-12-22T12:42:29;8.20;1.00
6270;DHT22;3168;51.684;6.954;2023-12-22T12:44:55;8.20;1.00
6270;DHT22;3168;51.684;6.954;2023-12-22T12:47:21;8.20;1.00
6270;DHT22;3168;51.684;6.954;2023-12-22T12:49:47;8.20;1.00
6270;DHT22;3168;51.684;6.954;2023-12-22T12:52:13;8.30;1.00
6270;DHT22;3168;51.684;6.954;2023-12-22T12:54:39;8.30;1.00
6270;DHT22;3168;51.684;6.954;2023-12-22T12:57:05;8.30;1.00
6270;DHT22;3168;51.684;6.954;2023-12-22T12:59:31;8.30;1.00
6270;DHT22;3168;51.684;6.954;2023-12-22T13:01:57;8.30;1.00
6270;DHT22;3168;51.684;6.954;2023-12-22T13:04:23;8.20;1.00
6270;DHT22;3168;51.684;6.954;2023-12-22T13:06:49;8.20;1.00
6270;DHT22;3168;51.684;6.954;2023-12-22T13:09:15;8.30;1.00
6270;DHT22;3168;51.684;6.954;2023-12-22T13:11:41;8.30;1.00
6270;DHT22;3168;51.684;6.954;2023-12-22T13:14:09;8.10;1.00
6270;DHT22;3168;51.684;6.954;2023-12-22T13:16:35;8.10;1.00
6270;DHT22;3168;51.684;6.954;2023-12-22T13:19:01;8.00;1.00
6270;DHT22;3168;51.684;6.954;2023-12-22T13:21:28;8.00;1.00
6270;DHT22;3168;51.684;6.954;2023-12-22T13:26:31;7.90;1.00
6270;DHT22;3168;51.684;6.954;2023-12-22T13:28:57;7.90;1.00
6270;DHT22;3168;51.684;6.954;2023-12-22T13:31:23;7.90;1.00
6270;DHT22;3168;51.684;6.954;2023-12-22T13:33:49;7.90;1.00
6270;DHT22;3168;51.684;6.954;2023-12-22T13:36:16;7.90;1.00
6270;DHT22;3168;51.684;6.954;2023-12-22T13:38:45;7.90;1.00
6270;DHT22;3168;51.684;6.954;2023-12-22T13:41:08;7.90;1.00
6270;DHT22;3168;51.684;6.954;2023-12-22T13:43:34;7.90;1.00
6270;DHT22;3168;51.684;6.954;2023-12-22T13:46:01;8.00;1.00
6270;DHT22;3168;51.684;6.954;2023-12-22T13:48:27;8.10;1.00
6270;DHT22;3168;51.684;6.954;2023-12-22T13:50:56;8.20;1.00
6270;DHT22;3168;51.684;6.954;2023-12-22T13:53:20;8.40;1.00
6270;DHT22;3168;51.684;6.954;2023-12-22T13:55:53;8.40;1.00
6270;DHT22;3168;51.684;6.954;2023-12-22T13:58:12;8.50;1.00
6270;DHT22;3168;51.684;6.954;2023-12-22T14:00:38;8.60;1.00
6270;DHT22;3168;51.684;6.954;2023-12-22T14:03:04;8.60;1.00
6270;DHT22;3168;51.684;6.954;2023-12-22T14:05:30;8.60;1.00
6270;DHT22;3168;51.684;6.954;2023-12-22T14:07:56;8.70;1.00
6270;DHT22;3168;51.684;6.954;2023-12-22T14:10:22;8.90;1.00
6270;DHT22;3168;51.684;6.954;2023-12-22T14:12:48;8.90;1.00
6270;DHT22;3168;51.684;6.954;2023-12-22T14:15:14;8.80;1.00
6270;DHT22;3168;51.684;6.954;2023-12-22T14:17:40;9.00;99.90
6270;DHT22;3168;51.684;6.954;2023-12-22T14:20:07;9.00;99.90
6270;DHT22;3168;51.684;6.954;2023-12-22T14:22:33;9.00;99.90
6270;DHT22;3168;51.684;6.954;2023-12-22T14:24:59;9.00;99.90
6270;DHT22;3168;51.684;6.954;2023-12-22T14:27:25;9.10;99.90
6270;DHT22;3168;51.684;6.954;2023-12-22T14:29:51;9.00;99.90
6270;DHT22;3168;51.684;6.954;2023-12-22T14:32:17;9.00;99.90
6270;DHT22;3168;51.684;6.954;2023-12-22T14:34:46;9.10;99.90
6270;DHT22;3168;51.684;6.954;2023-12-22T14:37:12;9.00;99.90
6270;DHT22;3168;51.684;6.954;2023-12-22T14:39:37;9.00;99.90
6270;DHT22;3168;51.684;6.954;2023-12-22T14:42:04;8.90;99.90
6270;DHT22;3168;51.684;6.954;2023-12-22T14:44:30;8.90;99.90
6270;DHT22;3168;51.684;6.954;2023-12-22T14:46:56;9.00;99.90
6270;DHT22;3168;51.684;6.954;2023-12-22T14:49:22;9.00;99.90
6270;DHT22;3168;51.684;6.954;2023-12-22T14:51:48;9.00;99.90
6270;DHT22;3168;51.684;6.954;2023-12-22T14:54:17;9.10;99.90
6270;DHT22;3168;51.684;6.954;2023-12-22T14:56:43;9.00;99.90
6270;DHT22;3168;51.684;6.954;2023-12-22T14:59:09;8.90;99.90
6270;DHT22;3168;51.684;6.954;2023-12-22T15:01:35;8.80;99.90
6270;DHT22;3168;51.684;6.954;2023-12-22T15:04:02;8.60;99.90
6270;DHT22;3168;51.684;6.954;2023-12-22T15:06:28;8.60;99.90
6270;DHT22;3168;51.684;6.954;2023-12-22T15:08:54;8.60;1.00
6270;DHT22;3168;51.684;6.954;2023-12-22T15:11:19;8.60;1.00
6270;DHT22;3168;51.684;6.954;2023-12-22T15:13:45;8.60;1.00
6270;DHT22;3168;51.684;6.954;2023-12-22T15:16:11;8.60;1.00
6270;DHT22;3168;51.684;6.954;2023-12-22T15:18:37;8.70;1.00
6270;DHT22;3168;51.684;6.954;2023-12-22T15:21:03;8.80;1.00
6270;DHT22;3168;51.684;6.954;2023-12-22T15:23:29;8.80;1.00
6270;DHT22;3168;51.684;6.954;2023-12-22T15:25:55;8.80;1.00
6270;DHT22;3168;51.684;6.954;2023-12-22T15:28:21;8.70;1.00
6270;DHT22;3168;51.684;6.954;2023-12-22T15:30:47;8.80;1.00
6270;DHT22;3168;51.684;6.954;2023-12-22T15:33:13;8.70;1.00
6270;DHT22;3168;51.684;6.954;2023-12-22T15:35:40;8.70;99.90
6270;DHT22;3168;51.684;6.954;2023-12-22T15:38:06;8.70;99.90
6270;DHT22;3168;51.684;6.954;2023-12-22T15:40:32;8.60;1.00
6270;DHT22;3168;51.684;6.954;2023-12-22T15:42:57;8.60;1.00
6270;DHT22;3168;51.684;6.954;2023-12-22T15:45:23;8.60;1.00
6270;DHT22;3168;51.684;6.954;2023-12-22T15:47:49;8.50;1.00
6270;DHT22;3168;51.684;6.954;2023-12-22T15:50:15;8.50;1.00
6270;DHT22;3168;51.684;6.954;2023-12-22T15:52:41;8.50;1.00
6270;DHT22;3168;51.684;6.954;2023-12-22T15:55:08;8.50;1.00
6270;DHT22;3168;51.684;6.954;2023-12-22T15:57:35;8.50;1.00
6270;DHT22;3168;51.684;6.954;2023-12-22T16:00:01;8.50;1.00
6270;DHT22;3168;51.684;6.954;2023-12-22T16:02:27;8.60;1.00
6270;DHT22;3168;51.684;6.954;2023-12-22T16:04:53;8.70;1.00
6270;DHT22;3168;51.684;6.954;2023-12-22T16:07:19;8.80;1.00
6270;DHT22;3168;51.684;6.954;2023-12-22T16:09:45;8.80;1.00
6270;DHT22;3168;51.684;6.954;2023-12-22T16:12:11;8.80;1.00
6270;DHT22;3168;51.684;6.954;2023-12-22T16:14:37;8.90;1.00
6270;DHT22;3168;51.684;6.954;2023-12-22T16:17:03;8.90;1.00
6270;DHT22;3168;51.684;6.954;2023-12-22T16:19:29;9.00;99.90
6270;DHT22;3168;51.684;6.954;2023-12-22T16:21:55;9.00;99.90
6270;DHT22;3168;51.684;6.954;2023-12-22T16:24:21;9.00;99.90
6270;DHT22;3168;51.684;6.954;2023-12-22T16:26:47;9.00;99.90